Time;durP1;ratioP1;P1;durP2;ratioP2;P2;SDS_P1;SDS_P2;PMS_P1;PMS_P2;Temp;Humidity;BMP_temperature;BMP_pressure;BME280_temperature;BME280_humidity;BME280_pressure;Samples;Min_cycle;Max_cycle;Signal;HPM_P1;HPM_P2
2021/10/21 00:01:46;;;;;;;4.38;2.63;;;;;;;13.37;71.09;95208.31;5110649;27;20051;-76
2021/10/21 00:04:13;;;;;;;4.72;2.47;;;;;;;13.39;70.91;95197.00;5109820;27;20048;-75
2021/10/21 00:06:39;;;;;;;3.70;2.53;;;;;;;13.42;70.97;95188.06;5110824;27;20055;-76
2021/10/21 00:09:06;;;;;;;5.03;2.97;;;;;;;13.47;70.77;95190.50;5109557;27;20418;-77
2021/10/21 00:11:34;;;;;;;4.22;3.00;;;;;;;13.47;70.83;95190.50;5112034;27;20055;-76
2021/10/21 00:14:03;;;;;;;5.15;2.80;;;;;;;13.46;70.75;95178.75;5109911;28;20079;-75
2021/10/21 00:16:29;;;;;;;7.07;2.50;;;;;;;13.44;70.62;95170.13;5110412;27;20554;-76
2021/10/21 00:18:56;;;;;;;4.03;2.40;;;;;;;13.46;70.68;95162.34;5110026;28;20048;-75
2021/10/21 00:21:23;;;;;;;5.40;2.53;;;;;;;13.51;70.20;95164.78;5110129;27;20056;-75
2021/10/21 00:23:49;;;;;;;4.35;2.53;;;;;;;13.52;69.48;95157.34;5110020;28;20036;-76
2021/10/21 00:26:16;;;;;;;6.63;3.53;;;;;;;13.51;69.34;95158.53;5109862;27;20069;-76
2021/10/21 00:28:43;;;;;;;6.50;2.65;;;;;;;13.54;69.58;95157.81;5110695;28;20051;-75
2021/10/21 00:31:11;;;;;;;4.75;2.55;;;;;;;13.58;68.78;95153.97;5109573;28;20052;-76
2021/10/21 00:33:37;;;;;;;5.53;2.45;;;;;;;13.62;68.30;95151.28;5110298;28;20051;-76
2021/10/21 00:36:04;;;;;;;5.07;2.60;;;;;;;13.62;68.47;95137.59;5109410;28;20048;-76
2021/10/21 00:38:30;;;;;;;3.20;2.08;;;;;;;13.64;68.58;95134.50;5110471;27;20505;-75
2021/10/21 00:40:57;;;;;;;3.35;2.35;;;;;;;13.69;68.09;95126.78;5111058;27;20506;-75
2021/10/21 00:43:23;;;;;;;6.85;2.63;;;;;;;13.72;67.48;95114.31;5109421;28;20661;-75
2021/10/21 00:45:50;;;;;;;3.75;2.33;;;;;;;13.76;66.71;95110.47;5109702;28;20698;-76
2021/10/21 00:48:18;;;;;;;4.00;2.38;;;;;;;13.78;65.99;95113.63;5109374;27;20048;-77
2021/10/21 00:50:46;;;;;;;4.28;2.42;;;;;;;13.79;66.19;95107.00;5110064;28;20048;-75
2021/10/21 00:53:13;;;;;;;5.78;2.60;;;;;;;13.78;65.75;95099.97;5108624;28;20052;-75
2021/10/21 00:55:40;;;;;;;4.03;2.40;;;;;;;13.79;65.71;95089.81;5109570;27;20120;-76
2021/10/21 00:58:06;;;;;;;3.25;2.40;;;;;;;13.80;65.96;95083.94;5108099;28;20047;-75
2021/10/21 01:00:34;;;;;;;3.28;2.13;;;;;;;13.82;65.61;95084.34;5109955;28;20051;-75
2021/10/21 01:03:01;;;;;;;5.18;2.65;;;;;;;13.83;65.54;95077.75;5108548;28;20048;-76
2021/10/21 01:05:29;;;;;;;3.83;2.60;;;;;;;13.82;65.82;95067.94;5109147;28;20055;-76
2021/10/21 01:07:55;;;;;;;3.58;2.70;;;;;;;13.84;65.47;95062.13;5108441;28;20116;-75
2021/10/21 01:10:22;;;;;;;4.60;2.33;;;;;;;13.84;65.60;95054.69;5110022;27;20076;-75
2021/10/21 01:12:48;;;;;;;4.13;2.47;;;;;;;13.88;65.59;95056.69;5109303;28;20054;-76
2021/10/21 01:15:17;;;;;;;4.10;2.40;;;;;;;13.89;64.85;95053.59;5109134;27;20047;-75
2021/10/21 01:17:43;;;;;;;3.90;2.33;;;;;;;13.88;64.85;95056.69;5109299;28;20059;-76
2021/10/21 01:20:13;;;;;;;4.30;2.33;;;;;;;13.83;64.72;95033.97;5108160;27;20436;-76
2021/10/21 01:22:40;;;;;;;5.15;2.40;;;;;;;13.82;64.80;95032.38;5109654;28;20055;-77
2021/10/21 01:25:07;;;;;;;4.68;2.38;;;;;;;13.86;64.70;95028.91;5108180;28;20052;-74
2021/10/21 01:27:34;;;;;;;6.65;2.42;;;;;;;13.81;64.44;95038.22;5109254;27;20048;-77
2021/10/21 01:30:00;;;;;;;5.88;2.72;;;;;;;13.82;63.90;95031.59;5108053;28;20047;-75
2021/10/21 01:32:27;;;;;;;4.00;2.63;;;;;;;13.79;64.33;95022.19;5108567;28;20043;-75
2021/10/21 01:34:54;;;;;;;4.47;2.47;;;;;;;13.79;64.26;95030.41;5108880;28;20052;-76
2021/10/21 01:37:22;;;;;;;3.42;2.58;;;;;;;13.77;64.87;95024.50;5108337;28;20050;-75
2021/10/21 01:39:48;;;;;;;4.03;2.50;;;;;;;13.74;64.62;95013.53;5108871;28;20043;-75
2021/10/21 01:42:15;;;;;;;3.47;2.58;;;;;;;13.69;64.95;95005.63;5109055;27;20059;-76
2021/10/21 01:44:42;;;;;;;3.55;2.38;;;;;;;13.65;65.28;95002.06;5109036;28;20058;-75
2021/10/21 01:47:08;;;;;;;4.18;2.45;;;;;;;13.67;65.09;94981.38;5107181;28;20058;-75
2021/10/21 01:49:35;;;;;;;4.40;2.70;;;;;;;13.70;64.97;94991.56;5109293;28;20062;-75
2021/10/21 01:52:01;;;;;;;3.80;2.47;;;;;;;13.68;64.69;94977.50;5107297;27;20047;-73
2021/10/21 01:54:29;;;;;;;4.75;2.47;;;;;;;13.67;63.76;94983.31;5108212;28;20059;-75
2021/10/21 01:56:55;;;;;;;4.57;2.50;;;;;;;13.69;63.85;94975.53;5107858;28;20039;-76
2021/10/21 01:59:22;;;;;;;5.28;2.85;;;;;;;13.69;64.51;94965.38;5107931;28;20464;-76
2021/10/21 02:01:48;;;;;;;4.03;2.70;;;;;;;13.71;64.07;94965.78;5107870;28;20051;-75
2021/10/21 02:04:15;;;;;;;4.68;2.58;;;;;;;13.71;63.71;94949.38;5107446;28;20418;-75
2021/10/21 02:06:41;;;;;;;4.28;2.60;;;;;;;13.67;63.88;94943.06;5108328;28;20686;-75
2021/10/21 02:09:08;;;;;;;5.28;2.60;;;;;;;13.68;64.56;94943.88;5107016;27;20051;-77
2021/10/21 02:11:36;;;;;;;3.72;2.30;;;;;;;13.67;64.29;94937.59;5110047;27;20047;-76
2021/10/21 02:14:02;;;;;;;4.38;2.50;;;;;;;13.65;63.96;94928.97;5107308;27;20414;-74
2021/10/21 02:16:28;;;;;;;4.35;2.85;;;;;;;13.64;63.48;94927.41;5108536;27;20059;-75
2021/10/21 02:18:55;;;;;;;4.68;2.90;;;;;;;13.64;64.10;94927.41;5107888;27;20402;-75
2021/10/21 02:21:21;;;;;;;6.35;2.67;;;;;;;13.61;63.77;94922.69;5108265;27;20054;-76
2021/10/21 02:23:48;;;;;;;4.72;2.60;;;;;;;13.59;63.36;94925.00;5108008;28;20047;-76
2021/10/21 02:26:14;;;;;;;4.53;3.25;;;;;;;13.52;63.45;94947.59;5107654;27;20056;-75
2021/10/21 02:28:43;;;;;;;6.15;3.40;;;;;;;13.41;64.86;94954.06;5108323;27;20488;-76
2021/10/21 02:31:09;;;;;;;4.53;2.90;;;;;;;13.36;65.01;94957.91;5107195;27;20138;-76
2021/10/21 02:33:35;;;;;;;4.93;2.30;;;;;;;13.32;65.28;94977.00;5108413;27;20047;-75
2021/10/21 02:36:02;;;;;;;6.85;3.00;;;;;;;13.30;65.52;94983.97;5107007;27;20757;-75
2021/10/21 02:38:28;;;;;;;3.45;2.35;;;;;;;13.29;65.17;94977.72;5108424;27;20059;-76
2021/10/21 02:40:55;;;;;;;3.67;2.63;;;;;;;13.28;65.71;94978.09;5114269;27;20079;-75
2021/10/21 02:43:22;;;;;;;3.80;2.72;;;;;;;13.30;66.39;94976.56;5114650;27;20120;-75
2021/10/21 02:45:50;;;;;;;3.97;2.50;;;;;;;13.31;66.77;94988.28;5114651;27;20047;-75
2021/10/21 02:48:16;;;;;;;3.20;2.40;;;;;;;13.19;66.77;94989.25;5114359;27;20047;-76
2021/10/21 02:50:42;;;;;;;4.30;2.42;;;;;;;13.16;67.20;94990.00;5114907;27;20058;-76
2021/10/21 02:53:09;;;;;;;5.00;2.40;;;;;;;13.12;67.47;95000.09;5114298;27;20051;-75
2021/10/21 02:55:35;;;;;;;3.08;2.35;;;;;;;13.05;67.89;95027.31;5115023;27;20054;-74
2021/10/21 02:58:02;;;;;;;4.10;2.35;;;;;;;13.00;68.58;95030.38;5113985;27;20115;-75
2021/10/21 03:00:28;;;;;;;3.83;2.40;;;;;;;12.93;68.76;95031.00;5115051;27;20056;-75
2021/10/21 03:02:56;;;;;;;4.43;2.20;;;;;;;12.90;69.32;95025.50;5114139;27;20082;-76
2021/10/21 03:05:24;;;;;;;4.22;2.50;;;;;;;12.89;69.28;94985.66;5114908;27;20658;-75
2021/10/21 03:07:51;;;;;;;3.20;2.30;;;;;;;12.90;69.43;94954.47;5114129;27;20483;-76
2021/10/21 03:10:17;;;;;;;6.28;2.85;;;;;;;12.96;69.67;94966.66;5115853;27;20070;-76
2021/10/21 03:12:43;;;;;;;5.72;2.65;;;;;;;12.97;69.46;94987.34;5114380;27;20059;-76
2021/10/21 03:15:11;;;;;;;4.60;2.78;;;;;;;12.96;69.72;94996.72;5114011;27;20043;-75
2021/10/21 03:17:41;;;;;;;3.42;2.60;;;;;;;12.96;70.04;94985.78;5114907;27;20139;-75
2021/10/21 03:20:12;;;;;;;4.57;2.60;;;;;;;13.01;70.21;94971.81;5113411;27;20082;-75
2021/10/21 03:22:38;;;;;;;5.80;3.17;;;;;;;13.03;69.94;94964.81;5114659;27;20130;-76
2021/10/21 03:25:07;;;;;;;4.72;2.90;;;;;;;13.04;69.91;94977.31;5111358;27;20137;-75
2021/10/21 03:27:33;;;;;;;4.05;2.40;;;;;;;13.06;70.19;94985.16;5114773;27;20096;-75
2021/10/21 03:30:00;;;;;;;6.65;3.00;;;;;;;13.08;69.68;95004.72;5114023;27;20100;-76
2021/10/21 03:32:26;;;;;;;5.43;2.70;;;;;;;13.14;69.29;95025.09;5114060;27;20083;-77
2021/10/21 03:34:53;;;;;;;10.07;3.53;;;;;;;13.13;69.65;95050.06;5114312;27;20058;-75
2021/10/21 03:37:21;;;;;;;8.85;4.55;;;;;;;13.08;70.29;95045.69;5112069;27;20055;-76
2021/10/21 03:39:49;;;;;;;6.82;3.20;;;;;;;13.08;69.75;95034.78;5114281;27;20054;-75
2021/10/21 03:42:16;;;;;;;5.35;2.90;;;;;;;13.11;70.11;95053.19;5113366;27;20122;-76
2021/10/21 03:44:42;;;;;;;4.57;3.00;;;;;;;13.16;70.53;95061.06;5114706;27;20054;-75
2021/10/21 03:47:09;;;;;;;8.32;4.07;;;;;;;13.17;70.44;95076.31;5113166;27;20058;-75
2021/10/21 03:49:36;;;;;;;5.38;2.70;;;;;;;13.13;71.07;95083.66;5114715;27;20080;-75
2021/10/21 03:52:03;;;;;;;4.55;2.50;;;;;;;13.14;71.19;95074.31;5110330;27;20048;-75
2021/10/21 03:54:31;;;;;;;6.00;3.25;;;;;;;13.12;70.98;95071.16;5111256;27;20054;-75
2021/10/21 03:56:58;;;;;;;4.97;2.67;;;;;;;13.13;71.29;95072.72;5110363;28;20048;-75
2021/10/21 03:59:25;;;;;;;7.43;3.58;;;;;;;13.15;71.33;95070.41;5110464;27;20047;-76
2021/10/21 04:01:53;;;;;;;5.35;3.40;;;;;;;13.14;71.17;95062.59;5110386;27;20692;-76
2021/10/21 04:04:19;;;;;;;7.40;3.65;;;;;;;13.13;71.37;95067.25;5110002;27;20051;-75
2021/10/21 04:06:46;;;;;;;4.93;2.80;;;;;;;13.11;70.98;95064.13;5111060;27;20055;-75
2021/10/21 04:09:12;;;;;;;3.97;2.83;;;;;;;13.09;70.62;95071.09;5109963;27;20043;-75
2021/10/21 04:11:40;;;;;;;4.78;3.17;;;;;;;13.14;71.26;95093.44;5110923;28;20052;-75
2021/10/21 04:14:07;;;;;;;4.93;2.92;;;;;;;13.15;71.53;95100.47;5110033;27;20048;-74
2021/10/21 04:16:33;;;;;;;4.25;2.65;;;;;;;13.19;71.34;95131.41;5111414;28;20052;-75
2021/10/21 04:18:59;;;;;;;6.55;3.00;;;;;;;13.18;70.87;95150.91;5110260;28;20059;-75
2021/10/21 04:21:26;;;;;;;5.00;3.30;;;;;;;13.15;70.78;95146.94;5110028;28;20071;-75
2021/10/21 04:23:54;;;;;;;6.53;3.33;;;;;;;13.14;71.25;95150.03;5110483;28;20051;-75
2021/10/21 04:26:21;;;;;;;6.22;3.75;;;;;;;13.13;70.66;95156.66;5109460;27;20054;-75
2021/10/21 04:28:49;;;;;;;4.55;3.10;;;;;;;13.13;71.05;95168.38;5110707;27;20043;-75
2021/10/21 04:31:15;;;;;;;4.97;3.17;;;;;;;13.12;70.15;95169.53;5109200;27;20078;-77
2021/10/21 04:33:42;;;;;;;8.32;3.70;;;;;;;13.10;70.68;95166.38;5110747;28;20054;-75
2021/10/21 04:36:09;;;;;;;6.57;4.00;;;;;;;13.11;71.80;95176.16;5108906;27;20592;-75
2021/10/21 04:38:35;;;;;;;9.02;3.80;;;;;;;13.14;72.21;95188.31;5110946;28;20058;-75
2021/10/21 04:41:02;;;;;;;6.00;3.22;;;;;;;13.14;71.98;95191.81;5108914;27;20070;-74
2021/10/21 04:43:28;;;;;;;5.90;3.50;;;;;;;13.15;70.30;95185.22;5110539;28;20051;-76
2021/10/21 04:45:56;;;;;;;6.15;3.17;;;;;;;13.13;70.35;95181.25;5109438;27;20727;-75
2021/10/21 04:48:23;;;;;;;9.05;4.00;;;;;;;13.14;71.54;95194.56;5109359;28;20063;-75
2021/10/21 04:50:49;;;;;;;8.10;4.00;;;;;;;13.14;70.42;95200.03;5109788;28;20051;-75
2021/10/21 04:53:15;;;;;;;13.90;5.03;;;;;;;13.10;70.83;95155.44;5109165;28;20054;-75
2021/10/21 04:55:42;;;;;;;9.77;4.78;;;;;;;13.05;71.57;95117.50;5109878;28;20070;-76
2021/10/21 04:58:08;;;;;;;10.85;5.88;;;;;;;12.99;71.79;95091.59;5108892;28;20048;-76
2021/10/21 05:00:36;;;;;;;8.98;4.18;;;;;;;12.99;71.41;95127.91;5109935;28;20051;-75
2021/10/21 05:03:09;;;;;;;9.32;4.25;;;;;;;13.01;72.18;95142.03;5107608;28;20126;-74
2021/10/21 05:05:35;;;;;;;10.67;4.40;;;;;;;13.00;71.36;95136.94;5109387;27;20387;-77
2021/10/21 05:08:02;;;;;;;8.35;4.00;;;;;;;12.97;71.52;95113.06;5108844;28;20070;-76
2021/10/21 05:10:29;;;;;;;6.20;3.75;;;;;;;12.97;71.67;95118.50;5109682;28;20149;-77
2021/10/21 05:12:55;;;;;;;6.05;3.72;;;;;;;13.04;70.17;95118.63;5108991;28;20052;-76
2021/10/21 05:15:23;;;;;;;8.23;3.53;;;;;;;13.02;70.75;95108.06;5108584;28;20064;-76
2021/10/21 05:17:50;;;;;;;7.50;3.47;;;;;;;13.04;71.48;95102.25;5109370;28;20139;-76
2021/10/21 05:20:18;;;;;;;14.98;4.70;;;;;;;13.06;71.55;95083.56;5108524;28;20054;-74
2021/10/21 05:22:45;;;;;;;8.38;4.65;;;;;;;13.02;71.10;95107.28;5109806;27;20548;-74
2021/10/21 05:25:11;;;;;;;8.18;3.97;;;;;;;12.98;71.31;95139.22;5107914;27;20047;-74
2021/10/21 05:27:38;;;;;;;10.48;5.00;;;;;;;12.98;70.26;95153.66;5108532;27;20142;-74
2021/10/21 05:30:06;;;;;;;22.25;5.60;;;;;;;12.98;69.71;95150.94;5106877;27;20097;-75
2021/10/21 05:32:33;;;;;;;14.90;4.97;;;;;;;13.01;69.62;95163.09;5109098;27;20150;-75
2021/10/21 05:34:59;;;;;;;8.50;3.72;;;;;;;12.94;70.26;95135.63;5108815;27;20060;-75
2021/10/21 05:37:27;;;;;;;10.82;4.35;;;;;;;12.82;71.66;95141.25;5108763;27;20727;-75
2021/10/21 05:39:55;;;;;;;9.50;4.10;;;;;;;12.76;71.04;95133.38;5108941;28;20054;-75
2021/10/21 05:42:22;;;;;;;42.42;5.30;;;;;;;12.74;69.58;95122.00;5107474;28;20075;-76
2021/10/21 05:44:49;;;;;;;22.23;4.35;;;;;;;12.79;69.28;95110.78;5109216;28;20052;-74
2021/10/21 05:47:16;;;;;;;18.20;5.22;;;;;;;12.90;70.05;95121.13;5107272;28;20054;-75
2021/10/21 05:49:42;;;;;;;16.67;4.93;;;;;;;12.96;69.21;95130.59;5109268;27;20043;-74
2021/10/21 05:52:09;;;;;;;11.68;4.40;;;;;;;13.05;68.92;95139.38;5107792;28;20595;-74
2021/10/21 05:54:37;;;;;;;38.58;5.65;;;;;;;13.37;65.55;95111.81;5108391;28;20071;-74
2021/10/21 05:57:04;;;;;;;21.65;4.57;;;;;;;13.72;64.43;95139.72;5107848;27;20043;-74
2021/10/21 05:59:30;;;;;;;14.10;3.97;;;;;;;14.11;62.55;95153.19;5108524;28;20075;-76
2021/10/21 06:01:57;;;;;;;11.75;4.00;;;;;;;14.39;62.39;95152.00;5108707;28;20054;-75
2021/10/21 06:04:23;;;;;;;41.50;4.72;;;;;;;14.63;62.45;95173.47;5108114;28;20058;-75
2021/10/21 06:06:50;;;;;;;10.63;3.47;;;;;;;14.79;62.60;95182.28;5108885;27;20044;-75
2021/10/21 06:09:20;;;;;;;3.80;2.30;;;;;;;14.92;64.67;95195.72;5107462;28;20662;-75
2021/10/21 06:11:49;;;;;;;10.30;2.42;;;;;;;14.88;68.50;95218.44;5108641;28;20097;-76
2021/10/21 06:14:15;;;;;;;11.65;1.98;;;;;;;14.68;71.70;95214.25;5107037;28;20055;-74
2021/10/21 06:16:44;;;;;;;7.20;2.20;;;;;;;14.36;75.07;95231.00;5108790;28;20047;-76
2021/10/21 06:19:10;;;;;;;5.90;1.67;;;;;;;14.13;76.66;95233.00;5107332;27;20051;-76
2021/10/21 06:21:37;;;;;;;2.90;1.88;;;;;;;13.96;76.63;95271.84;5108351;28;20047;-76
2021/10/21 06:24:04;;;;;;;2.95;1.73;;;;;;;13.79;76.69;95256.69;5107682;28;20109;-76
2021/10/21 06:26:31;;;;;;;4.78;1.58;;;;;;;13.59;77.19;95261.44;5108012;28;20059;-76
2021/10/21 06:28:58;;;;;;;5.10;1.80;;;;;;;13.51;77.45;95271.44;5108503;28;20418;-77
2021/10/21 06:31:25;;;;;;;3.40;1.52;;;;;;;13.34;76.51;95306.66;5107181;28;20047;-76
2021/10/21 06:33:51;;;;;;;3.33;1.17;;;;;;;13.21;77.79;95309.56;5108592;28;20418;-76
2021/10/21 06:36:18;;;;;;;3.85;1.80;;;;;;;13.19;78.87;95300.88;5106513;28;20055;-76
2021/10/21 06:38:45;;;;;;;4.32;1.42;;;;;;;13.21;77.63;95292.34;5108331;28;20058;-75
2021/10/21 06:41:11;;;;;;;3.42;1.30;;;;;;;13.28;74.37;95304.22;5106665;28;20050;-76
2021/10/21 06:43:39;;;;;;;3.30;1.10;;;;;;;13.37;70.29;95289.53;5108124;28;20066;-75
2021/10/21 06:46:08;;;;;;;3.88;1.20;;;;;;;13.50;68.66;95282.75;5107118;28;20056;-76
2021/10/21 06:48:34;;;;;;;4.47;0.90;;;;;;;13.54;64.57;95300.03;5107792;28;20043;-75
2021/10/21 06:51:01;;;;;;;2.92;0.70;;;;;;;13.46;64.31;95314.69;5107932;28;20051;-76
2021/10/21 06:53:28;;;;;;;4.15;0.80;;;;;;;13.27;64.07;95308.09;5107122;28;20044;-75
2021/10/21 06:55:54;;;;;;;2.25;0.70;;;;;;;13.13;64.96;95299.59;5107889;28;20055;-74
2021/10/21 06:58:21;;;;;;;5.90;0.80;;;;;;;12.97;65.89;95323.47;5106646;28;20551;-75
2021/10/21 07:00:48;;;;;;;2.20;0.70;;;;;;;12.71;66.99;95322.13;5108375;28;20047;-76
2021/10/21 07:03:16;;;;;;;2.47;0.43;;;;;;;12.56;66.61;95317.47;5106881;28;20113;-75
2021/10/21 07:05:43;;;;;;;7.13;0.75;;;;;;;12.50;65.42;95327.09;5108277;28;20518;-75
2021/10/21 07:08:10;;;;;;;3.28;0.65;;;;;;;12.45;65.38;95339.09;5106358;28;20044;-74
2021/10/21 07:10:37;;;;;;;3.15;0.90;;;;;;;12.46;64.49;95346.13;5107810;28;20054;-75
2021/10/21 07:13:04;;;;;;;7.55;0.60;;;;;;;12.53;61.18;95331.88;5107410;28;20047;-75
2021/10/21 07:15:31;;;;;;;3.58;1.15;;;;;;;12.67;59.52;95337.63;5107408;28;20054;-75
2021/10/21 07:17:58;;;;;;;4.38;0.80;;;;;;;12.89;58.47;95373.63;5107665;28;20055;-76
2021/10/21 07:20:25;;;;;;;1.77;0.52;;;;;;;13.07;56.73;95358.41;5106862;28;20066;-74
2021/10/21 07:22:52;;;;;;;2.47;0.57;;;;;;;13.17;57.88;95341.44;5107974;28;20055;-74
2021/10/21 07:25:19;;;;;;;3.92;0.82;;;;;;;13.25;55.93;95354.13;5106689;28;20051;-73
2021/10/21 07:27:45;;;;;;;5.93;0.68;;;;;;;13.37;56.98;95360.63;5110645;28;20309;-74
2021/10/21 07:30:13;;;;;;;3.17;0.65;;;;;;;13.38;56.76;95362.22;5110271;28;20047;-73
2021/10/21 07:32:40;;;;;;;6.93;0.70;;;;;;;13.38;57.94;95397.75;5111167;27;20055;-75
2021/10/21 07:35:07;;;;;;;3.20;0.70;;;;;;;13.42;57.70;95401.38;5110616;28;20059;-73
2021/10/21 07:37:35;;;;;;;1.33;0.52;;;;;;;13.41;58.38;95406.03;5111669;28;20052;-76
2021/10/21 07:40:02;;;;;;;3.40;0.55;;;;;;;13.43;58.16;95433.03;5111022;28;20052;-72
2021/10/21 07:42:28;;;;;;;3.92;1.25;;;;;;;13.46;58.24;95418.63;5110628;27;20566;-74
2021/10/21 07:44:54;;;;;;;6.75;1.30;;;;;;;13.47;57.37;95420.22;5111501;28;20059;-74
2021/10/21 07:47:22;;;;;;;7.03;0.77;;;;;;;13.47;56.83;95420.22;5109950;28;20198;-74
2021/10/21 07:49:48;;;;;;;6.07;0.95;;;;;;;13.54;56.28;95442.25;5111695;28;20051;-76
2021/10/21 07:52:17;;;;;;;6.85;0.88;;;;;;;13.59;56.21;95458.38;5109594;27;20055;-76
2021/10/21 07:54:45;;;;;;;4.22;0.80;;;;;;;13.58;55.08;95448.59;5111380;28;20051;-75
2021/10/21 07:57:13;;;;;;;6.43;0.73;;;;;;;13.62;53.27;95448.63;5110081;27;20126;-73
2021/10/21 07:59:40;;;;;;;4.95;1.00;;;;;;;13.63;54.05;95483.88;5111002;28;20131;-75
2021/10/21 08:02:07;;;;;;;2.92;0.85;;;;;;;13.69;54.19;95471.47;5110146;27;20059;-74
2021/10/21 08:04:33;;;;;;;9.48;0.82;;;;;;;13.64;52.91;95490.91;5110544;28;20067;-74
2021/10/21 08:07:02;;;;;;;6.75;0.82;;;;;;;13.61;53.41;95450.59;5111266;27;20047;-76
2021/10/21 08:09:31;;;;;;;7.50;0.80;;;;;;;13.56;53.33;95472.75;5109925;28;20056;-75
2021/10/21 08:12:00;;;;;;;8.88;0.90;;;;;;;13.54;52.32;95483.28;5110793;27;20834;-75
2021/10/21 08:14:27;;;;;;;5.30;1.10;;;;;;;13.54;53.49;95507.88;5109583;27;20053;-75
2021/10/21 08:16:53;;;;;;;8.30;1.17;;;;;;;13.54;53.11;95511.41;5110540;27;20089;-75
2021/10/21 08:19:21;;;;;;;11.60;1.00;;;;;;;13.59;52.74;95526.75;5109763;27;20044;-75
2021/10/21 08:21:47;;;;;;;6.03;1.02;;;;;;;13.58;52.79;95508.75;5110384;27;20054;-74
2021/10/21 08:24:14;;;;;;;7.65;1.20;;;;;;;13.55;52.08;95512.19;5109978;27;20054;-74
2021/10/21 08:26:42;;;;;;;5.70;1.13;;;;;;;13.57;52.98;95523.56;5109980;27;20055;-74
2021/10/21 08:29:10;;;;;;;4.97;1.10;;;;;;;13.58;53.97;95552.53;5109857;27;20715;-74
2021/10/21 08:31:36;;;;;;;8.77;1.33;;;;;;;13.59;53.52;95537.69;5109436;27;20047;-73
2021/10/21 08:34:03;;;;;;;6.70;1.20;;;;;;;13.55;52.66;95515.72;5110383;27;20418;-76
2021/10/21 08:36:30;;;;;;;2.75;1.05;;;;;;;13.52;51.92;95540.25;5109902;27;20446;-74
2021/10/21 08:38:57;;;;;;;11.00;0.93;;;;;;;13.54;52.54;95524.31;5110445;27;20058;-75
2021/10/21 08:41:24;;;;;;;8.90;1.30;;;;;;;13.51;52.88;95536.72;5109021;28;20055;-74
2021/10/21 08:43:51;;;;;;;6.65;1.50;;;;;;;13.48;52.49;95536.66;5110409;28;20047;-74
2021/10/21 08:46:23;;;;;;;12.75;1.60;;;;;;;13.50;52.88;95550.78;5109023;27;20600;-74
2021/10/21 08:48:51;;;;;;;9.68;1.10;;;;;;;13.56;52.83;95560.28;5109924;28;20043;-74
2021/10/21 08:51:17;;;;;;;15.90;1.23;;;;;;;13.57;52.64;95542.72;5109306;28;20066;-74
2021/10/21 08:53:44;;;;;;;8.30;1.52;;;;;;;13.61;52.80;95562.75;5109384;27;20051;-75
2021/10/21 08:56:11;;;;;;;5.40;1.52;;;;;;;13.61;52.34;95551.81;5109691;28;20426;-74
2021/10/21 08:58:37;;;;;;;5.35;1.20;;;;;;;13.64;52.63;95558.53;5109073;27;20058;-74
2021/10/21 09:01:07;;;;;;;12.07;1.70;;;;;;;13.68;53.30;95568.41;5109968;28;20414;-75
2021/10/21 09:03:43;;;;;;;10.45;1.40;;;;;;;13.74;51.50;95561.50;5109124;27;20075;-74
2021/10/21 09:06:22;;;;;;;12.52;1.08;;;;;;;13.80;52.43;95565.53;5109182;28;20043;-74
2021/10/21 09:08:49;;;;;;;7.18;1.30;;;;;;;13.89;52.29;95583.69;5109657;27;20050;-75
2021/10/21 09:11:20;;;;;;;8.25;1.33;;;;;;;13.91;51.70;95587.66;5108780;28;20047;-75
2021/10/21 09:13:47;;;;;;;9.30;1.20;;;;;;;13.91;50.49;95589.59;5109748;28;20641;-75
2021/10/21 09:16:18;;;;;;;8.80;1.00;;;;;;;13.98;49.57;95576.84;5108123;27;20051;-74
2021/10/21 09:18:47;;;;;;;6.60;1.20;;;;;;;14.01;50.41;95578.88;5109827;28;20093;-75
2021/10/21 09:21:29;;;;;;;10.63;0.98;;;;;;;14.12;49.32;95603.75;5108740;28;20085;-74
2021/10/21 09:23:58;;;;;;;5.82;0.88;;;;;;;14.10;49.19;95615.06;5109416;27;20089;-74
2021/10/21 09:26:24;;;;;;;9.55;0.88;;;;;;;14.48;47.57;95604.50;5108777;28;20528;-74
2021/10/21 09:28:51;;;;;;;11.32;1.13;;;;;;;14.67;48.12;95623.69;5108759;28;20051;-75
2021/10/21 09:31:17;;;;;;;8.32;1.13;;;;;;;14.65;46.82;95615.00;5108660;27;20055;-75
2021/10/21 09:33:46;;;;;;;9.43;1.55;;;;;;;14.45;47.41;95608.72;5108401;27;20047;-77
2021/10/21 09:36:17;;;;;;;9.55;1.50;;;;;;;14.36;47.92;95632.81;5109195;28;20513;-73
2021/10/21 09:38:49;;;;;;;7.10;0.90;;;;;;;14.27;47.96;95635.75;5108495;28;20047;-75
2021/10/21 09:41:17;;;;;;;4.30;1.10;;;;;;;14.22;46.86;95637.97;5108814;28;20503;-75
2021/10/21 09:43:44;;;;;;;10.90;1.40;;;;;;;14.22;47.47;95640.72;5108122;28;20051;-75
2021/10/21 09:46:37;;;;;;;17.08;2.53;;;;;;;14.22;47.30;95652.47;5108798;28;20044;-74
2021/10/21 09:49:21;;;;;;;9.35;1.27;;;;;;;14.06;48.09;95638.03;5107862;28;20139;-73
2021/10/21 09:51:48;;;;;;;10.05;1.10;;;;;;;14.05;48.17;95656.41;5108331;27;20071;-75
2021/10/21 09:54:15;;;;;;;11.40;1.02;;;;;;;14.30;46.96;95648.75;5108691;28;20521;-74
2021/10/21 09:56:57;;;;;;;11.77;0.90;;;;;;;14.57;47.57;95668.09;5107374;28;20546;-77
2021/10/21 09:59:26;;;;;;;4.70;1.00;;;;;;;14.67;46.29;95656.56;5108443;28;20130;-74
2021/10/21 10:01:56;;;;;;;6.97;1.00;;;;;;;14.84;46.59;95656.13;5108050;28;20058;-76
2021/10/21 10:04:25;;;;;;;8.57;1.20;;;;;;;15.01;46.09;95667.78;5108299;28;20521;-74
2021/10/21 10:06:54;;;;;;;5.28;0.90;;;;;;;15.08;45.40;95681.63;5108459;28;20460;-73
2021/10/21 10:09:21;;;;;;;7.07;1.10;;;;;;;15.23;46.23;95661.53;5107571;28;20051;-76
2021/10/21 10:11:48;;;;;;;10.10;1.45;;;;;;;15.32;45.89;95675.81;5108427;28;20063;-74
2021/10/21 10:14:15;;;;;;;8.10;1.35;;;;;;;15.31;46.01;95655.03;5107305;28;20047;-75
2021/10/21 10:16:43;;;;;;;14.07;1.00;;;;;;;15.35;45.51;95657.84;5108793;28;20684;-75
2021/10/21 10:19:10;;;;;;;5.00;0.90;;;;;;;15.30;44.31;95658.13;5107206;28;20779;-75
2021/10/21 10:21:38;;;;;;;11.07;1.33;;;;;;;15.30;43.85;95660.88;5108364;28;20092;-74
2021/10/21 10:24:09;;;;;;;5.63;1.13;;;;;;;15.24;43.85;95657.63;5107687;28;20422;-74
2021/10/21 10:26:47;;;;;;;8.55;0.80;;;;;;;15.37;44.80;95671.97;5108132;28;20051;-75
2021/10/21 10:29:15;;;;;;;4.50;1.15;;;;;;;15.58;45.54;95655.06;5108118;28;20055;-74
2021/10/21 10:31:43;;;;;;;8.02;1.02;;;;;;;15.85;42.86;95686.13;5107627;28;20201;-75
2021/10/21 10:34:30;;;;;;;2.28;0.80;;;;;;;15.94;43.66;95685.88;5108492;28;20058;-76
2021/10/21 10:37:36;;;;;;;18.23;2.22;;;;;;;16.06;43.74;95677.41;5108797;28;20051;-74
2021/10/21 10:40:03;;;;;;;19.98;2.63;;;;;;;16.00;42.96;95665.97;5107545;28;20039;-74
2021/10/21 10:42:59;;;;;;;16.73;2.30;;;;;;;15.63;43.57;95683.03;5107932;28;20055;-74
2021/10/21 10:45:45;;;;;;;23.90;2.92;;;;;;;15.42;45.04;95701.84;5106812;28;20071;-74
2021/10/21 10:48:13;;;;;;;14.18;2.63;;;;;;;15.15;44.60;95698.22;5108140;28;20047;-74
2021/10/21 10:50:53;;;;;;;17.35;2.70;;;;;;;15.02;45.03;95688.56;5107451;28;20494;-74
2021/10/21 10:53:47;;;;;;;10.43;1.90;;;;;;;15.02;45.62;95689.34;5107599;28;20349;-76
2021/10/21 10:56:49;;;;;;;14.27;2.38;;;;;;;15.14;46.49;95707.59;5108009;28;20051;-73
2021/10/21 10:59:29;;;;;;;20.05;2.60;;;;;;;15.05;43.90;95712.53;5106763;28;20044;-73
2021/10/21 11:01:56;;;;;;;20.15;2.72;;;;;;;14.92;44.80;95700.91;5111511;28;20062;-75
2021/10/21 11:04:58;;;;;;;9.93;1.77;;;;;;;14.83;45.13;95700.34;5111354;28;20055;-74
2021/10/21 11:07:26;;;;;;;10.20;2.10;;;;;;;14.91;45.09;95712.22;5111324;27;20525;-75
2021/10/21 11:10:15;;;;;;;10.93;2.05;;;;;;;15.00;45.14;95696.34;5112122;28;20058;-74
2021/10/21 11:12:42;;;;;;;18.02;2.13;;;;;;;15.19;44.49;95709.25;5110986;28;20626;-76
2021/10/21 11:15:37;;;;;;;17.23;2.78;;;;;;;15.36;44.79;95687.63;5111460;28;20089;-75
2021/10/21 11:18:05;;;;;;;10.82;1.83;;;;;;;15.51;44.78;95687.91;5111643;27;20062;-73
2021/10/21 11:20:40;;;;;;;14.73;2.55;;;;;;;15.72;44.11;95687.50;5111216;28;20048;-74
2021/10/21 11:23:08;;;;;;;9.38;2.10;;;;;;;15.69;42.81;95694.50;5111931;27;20051;-72
2021/10/21 11:25:38;;;;;;;23.80;2.50;;;;;;;15.52;43.65;95697.72;5110922;28;20536;-75
2021/10/21 11:28:05;;;;;;;20.38;1.95;;;;;;;15.25;43.20;95683.91;5111746;27;20067;-74
2021/10/21 11:30:34;;;;;;;11.63;1.77;;;;;;;15.09;43.31;95696.94;5111707;28;20059;-74
2021/10/21 11:33:03;;;;;;;18.92;2.72;;;;;;;15.12;43.63;95704.41;5111614;28;20060;-74
2021/10/21 11:35:31;;;;;;;17.70;2.95;;;;;;;15.12;44.55;95696.19;5111403;27;20494;-74
2021/10/21 11:38:00;;;;;;;29.30;3.20;;;;;;;15.04;43.83;95680.78;5110991;27;20051;-74